Aérodrome :
LOGIN :

S'inscrire | Disclaimer

   EN    FR    IT 

 










Légende :    VFR   VFR Marginal   IFR   IFR Intensif   IFR Très Intensif
Visi : 
Plafond : 
>= 8 km
>= 3000ft
5 à 8 km
1000 à 3000 ft
1500m à 5 km
500 à 1000 ft
800 à 1500m
200 à 500 ft
< 800m
< 200 ft
Symboles :   Orages  Brouillard  Fortes neiges  Fortes précipitations  Vent > 20 kt
SIGMETs :   Divers  Orages  Givrage  Turbulence  Onde Orograph.  Cendres Volcan.







- Altitude de l'aérodrome : 600 ft
- Code IATA : VIE


LOWW - Vienna Schwechat

DERNIER METAR :
  • 230720Z 03005KT 1500 R16/P1500U R29/P1500N -SN BR OVC003 M07/M08 Q1003 R88/19//95 TEMPO TL0830 1200 BECMG FM0830 4000 OVC015

METARs EXPIRÉS :
  • 230650Z 04004KT 010V070 2300 -SN BR FEW001 OVC002 M07/M08 Q1003 R88/19//95 TEMPO 1200 SN BECMG OVC006
  • 230620Z 02006KT 2500 BR OVC001 M07/M08 Q1003 R88/19//95 BECMG 3000 -SN BR OVC005
  • 230550Z 03006KT 1700 1000E R29/1300U FZBCFG OVC001 M07/M08 Q1003 R88/19//95 BECMG 3000 -SN BR OVC005
  • 230520Z 03006KT 1500 R29/1200U FZBCFG OVC001 M07/M08 Q1003 R88/19//95 BECMG 3000 -SN BR OVC005
  • 230450Z 02006KT 1200 R29/1200D FZBCFG FEW000 OVC001 M07/M08 Q1003 R88/19//95 BECMG 2000 -SN BR OVC005

TAF TAF LOWW
Valide du 23 à 06h jusqu'au 24 à 12h UTC


230515Z 2306/2412 05005KT 5000 -SN SCT010 OVC015 TXM02/2412Z TNM06/2306Z
TEMPO 2306/2307 0900 FZBCFG BKN001
TEMPO 2306/2316 12007KT 2000 -SN BR OVC007
PROB40
TEMPO 2307/2315 1200 SN VV004
BECMG 2316/2318 NSW OVC010
TEMPO 2316/2407 4000 BR BKN005
BECMG 2407/2409 35007KT BKN015
Pas de NOTAMs connus pour ce terrain.



MET'MAP, la Météo Aéronautique d'un coup d'oeil ! - Copyright ORBIFLY Décembre 2007 - Disclaimer

ORBIFLY MET'MAP TEAM :

Programmation & Développement : Alexandra Zaïnal
Conception & Développement : Baudouin d'Aumeries
Co-Programmation & Développement : Marc-Olivier Méhu
Soutien technique & logistique : Manuel Goepfert

Contact : metmap@orbifly.com




SOURCES & CREDITS :

   NOAA